首页
METAR-TAF:

METAR-TAF

机场 :

波城, 法国

纬度: 43-23N, 经度: 000-25W, 海拔: 188米

当前天气观测

该预报发布于26分钟前的02:30 UTC
风速5节,风向西南
温度 7°C
湿度 93%
气压 1010 hPa
能見度: 6000

METAR: LFBP 170230Z AUTO 23005KT 6000 RA FEW019/// BKN025/// BKN030/// ///TCU 07/06 Q1010 TEMPO 24015G30KT 2000 RA BKN010

时间: 03:56 (02:56 UTC)

预报

该预报发布于3小时和56分钟前的23:00 UTC
预报有效从17日的 00点(UTC)到 17日的 24点(UTC)
风速12节,风向西转西南
能见度10公里或以上
多云层高于3000英尺
短暂存在
从 17日的 00点(UTC)到 17日的 06点(UTC)
风速15节,风向西转西南,有时为30节阵风
能見度: 2000
多云层高于1000英尺
几率 30% :
短暂存在
从 17日的 06点(UTC)到 17日的 12点(UTC)
能見度: 4000
小雨
成为
从 17日的 12点(UTC)到 17日的 14点(UTC)
风速3节,风向多变
短暂存在
从 17日的 15点(UTC)到 17日的 24点(UTC)
能見度: 3000
多云层高于800英尺

TAF: LFBP 162300Z 1700/1724 24012KT 9999 BKN030 TEMPO 1700/1706 24015G30KT 2000 RA BKN010 PROB30 TEMPO 1706/1712 4000 -RA BECMG 1712/1714 VRB03KT TEMPO 1715/1724 3000 RA BKN008

超过4000个机场的气象观测和天气预报(METAR&TAF报告)。

可查询的气象台以黄色和红色小点在地图上表示。

将鼠标移到小点上方,可查看气象台名称。

然后点击查看天气观测和预报。

如需切换地图:点击带黑十字的绿色按钮放大地图;点击带横线的绿色按钮缩小地图;或者点击绿色箭头查看邻近地区的地图。


METAR-TAF: